Terminal Aerodrome Forecast
Issued by NWS Topeka, KS

Home | Current Version | Previous Version | Graphics & Text | Print | Product List | Glossary On
Versions: 1 2 3 4 5 6 7 8 9 10 11 12 13 14 15 16 17 18
000
FTUS43 KTOP 170534
TAFTOP
TAF
KTOP 170534Z 1706/1806 15011KT P6SM OVC025
     FM170730 16010KT P6SM OVC015
     FM170900 17010KT 6SM -DZ OVC008
      TEMPO 1710/1713 4SM -DZ
     FM171600 18011G20KT P6SM OVC010
     FM171900 19012G23KT P6SM FEW020 SCT250
     FM172300 21006KT P6SM BKN200
     FM180400 32005KT P6SM SCT200=

USA.gov is the U.S. government's official web portal to all federal, state and local government web resources and services.